createdAt,value
2023-05-16T00:02:21.754Z,12.68
2023-05-16T00:04:49.973Z,12.66
2023-05-16T00:07:18.050Z,12.63
2023-05-16T00:09:46.151Z,12.54
2023-05-16T00:12:14.199Z,12.51
2023-05-16T00:14:43.601Z,12.50
2023-05-16T00:17:12.575Z,12.48
2023-05-16T00:19:42.296Z,12.52
2023-05-16T00:24:39.623Z,12.50
2023-05-16T00:27:08.210Z,12.53
2023-05-16T00:29:36.852Z,12.54
2023-05-16T00:32:08.874Z,12.43
2023-05-16T00:34:37.231Z,12.45
2023-05-16T00:37:05.657Z,12.46
2023-05-16T00:39:33.752Z,12.45
2023-05-16T00:42:02.220Z,12.48
2023-05-16T00:44:31.186Z,12.45
2023-05-16T00:47:00.429Z,12.47
2023-05-16T00:49:30.212Z,12.46
2023-05-16T00:51:59.724Z,12.45
2023-05-16T00:54:29.382Z,12.43
2023-05-16T00:56:57.935Z,12.40
2023-05-16T00:59:26.681Z,12.37
2023-05-16T01:01:55.999Z,12.36
2023-05-16T01:04:24.303Z,12.26
2023-05-16T01:06:55.258Z,12.19
2023-05-16T01:09:23.547Z,12.14
2023-05-16T01:11:58.500Z,12.10
2023-05-16T01:14:36.347Z,12.02
2023-05-16T01:17:13.355Z,11.95
2023-05-16T01:20:01.635Z,11.93
2023-05-16T01:22:47.743Z,11.93
2023-05-16T01:25:28.321Z,11.93
2023-05-16T01:27:59.281Z,11.96
2023-05-16T01:30:27.342Z,12.01
2023-05-16T01:32:55.520Z,11.98
2023-05-16T01:35:23.759Z,12.00
2023-05-16T01:38:02.185Z,12.00
2023-05-16T01:40:37.166Z,12.01
2023-05-16T01:43:12.280Z,12.02
2023-05-16T01:45:45.374Z,12.03
2023-05-16T01:48:19.446Z,12.02
2023-05-16T01:50:57.675Z,12.03
2023-05-16T01:53:29.513Z,12.03
2023-05-16T01:56:01.556Z,12.00
2023-05-16T01:58:34.407Z,11.99
2023-05-16T02:01:04.400Z,11.94
2023-05-16T02:03:33.106Z,11.95
2023-05-16T02:06:01.546Z,11.93
2023-05-16T02:08:30.270Z,11.93
2023-05-16T02:10:58.348Z,12.00
2023-05-16T02:13:26.795Z,11.99
2023-05-16T02:15:56.256Z,12.06
2023-05-16T02:18:24.776Z,11.99
2023-05-16T02:20:53.410Z,11.93
2023-05-16T02:23:21.771Z,11.92
2023-05-16T02:25:50.290Z,11.89
2023-05-16T02:28:18.357Z,11.86
2023-05-16T02:30:46.741Z,11.81
2023-05-16T02:33:16.218Z,11.77
2023-05-16T02:35:44.314Z,11.71
2023-05-16T02:38:17.568Z,11.72
2023-05-16T02:40:45.658Z,11.66
2023-05-16T02:43:13.750Z,11.66
2023-05-16T02:45:41.975Z,11.66
2023-05-16T02:48:10.098Z,11.65
2023-05-16T02:50:40.435Z,11.64
2023-05-16T02:53:08.495Z,11.66
2023-05-16T02:55:36.590Z,11.65
2023-05-16T02:58:04.772Z,11.62
2023-05-16T03:00:34.077Z,11.63
2023-05-16T03:03:02.454Z,11.59
2023-05-16T03:05:30.786Z,11.58
2023-05-16T03:08:00.452Z,11.60
2023-05-16T03:10:28.598Z,11.58
2023-05-16T03:12:56.663Z,11.57
2023-05-16T03:15:24.867Z,11.66
2023-05-16T03:17:53.114Z,11.70
2023-05-16T03:20:21.313Z,11.72
2023-05-16T03:22:49.484Z,11.76
2023-05-16T03:25:18.986Z,11.78
2023-05-16T03:27:47.003Z,11.80
2023-05-16T03:30:15.612Z,11.78
2023-05-16T03:32:43.710Z,11.91
2023-05-16T03:35:12.152Z,11.88
2023-05-16T03:37:40.444Z,11.90
2023-05-16T03:40:10.187Z,11.92
2023-05-16T03:42:39.626Z,11.93
2023-05-16T03:45:09.118Z,11.97
2023-05-16T03:47:37.330Z,12.01
2023-05-16T03:50:06.332Z,12.08
2023-05-16T03:52:34.921Z,12.14
2023-05-16T03:55:04.087Z,12.16
2023-05-16T03:57:33.389Z,12.16
2023-05-16T04:00:07.151Z,12.20
2023-05-16T04:02:35.597Z,12.22
2023-05-16T04:05:04.640Z,12.23
2023-05-16T04:07:32.696Z,12.28
2023-05-16T04:10:00.922Z,12.27
2023-05-16T04:12:28.967Z,12.30
2023-05-16T04:14:57.145Z,12.32
2023-05-16T04:17:27.871Z,12.35
2023-05-16T04:19:56.063Z,12.43
2023-05-16T04:22:24.239Z,12.47
2023-05-16T04:24:52.401Z,12.47
2023-05-16T04:27:20.479Z,12.47
2023-05-16T04:29:48.593Z,12.47
2023-05-16T04:32:17.498Z,12.50
2023-05-16T04:34:48.585Z,12.50
2023-05-16T04:37:16.620Z,12.50
2023-05-16T04:39:44.672Z,12.51
2023-05-16T04:42:12.946Z,12.49
2023-05-16T04:44:41.143Z,12.52
2023-05-16T04:47:09.423Z,12.55
2023-05-16T04:49:37.559Z,12.57
2023-05-16T04:52:08.494Z,12.53
2023-05-16T04:54:36.639Z,12.61
2023-05-16T04:57:04.935Z,12.67
2023-05-16T04:59:33.156Z,12.62
2023-05-16T05:02:01.751Z,12.67
2023-05-16T05:04:30.013Z,12.63
2023-05-16T05:06:58.269Z,12.68
2023-05-16T05:09:27.735Z,12.68
2023-05-16T05:11:55.829Z,12.68
2023-05-16T05:14:23.994Z,12.69
2023-05-16T05:16:52.109Z,12.71
2023-05-16T05:19:20.627Z,12.72
2023-05-16T05:21:48.735Z,12.68
2023-05-16T05:24:16.758Z,12.62
2023-05-16T05:26:46.180Z,12.57
2023-05-16T05:29:14.308Z,12.59
2023-05-16T05:31:42.430Z,12.54
2023-05-16T05:34:10.476Z,12.59
2023-05-16T05:36:38.580Z,12.58
2023-05-16T05:39:07.016Z,12.62
2023-05-16T05:41:37.331Z,12.63
2023-05-16T05:44:07.128Z,12.64
2023-05-16T05:46:35.693Z,12.60
2023-05-16T05:49:04.056Z,12.61
2023-05-16T05:51:32.508Z,12.64
2023-05-16T05:54:00.576Z,12.67
2023-05-16T05:56:28.689Z,12.69
2023-05-16T05:58:56.783Z,12.69
2023-05-16T06:01:26.599Z,12.69
2023-05-16T06:03:54.704Z,12.66
2023-05-16T06:06:22.787Z,12.69
2023-05-16T06:08:50.878Z,12.69
2023-05-16T06:11:19.845Z,12.68
2023-05-16T06:13:47.965Z,12.70
2023-05-16T06:16:16.172Z,12.71
2023-05-16T06:18:46.222Z,12.71
2023-05-16T06:21:14.386Z,12.71
2023-05-16T06:23:42.503Z,12.71
2023-05-16T06:26:10.628Z,12.74
2023-05-16T06:28:38.715Z,12.76
2023-05-16T06:31:06.951Z,12.76
2023-05-16T06:33:35.149Z,12.78
2023-05-16T06:36:04.908Z,12.79
2023-05-16T06:38:33.100Z,12.79
2023-05-16T06:41:01.277Z,12.81
2023-05-16T06:43:29.405Z,12.82
2023-05-16T06:45:57.542Z,12.83
2023-05-16T06:48:25.753Z,12.76
2023-05-16T06:50:54.068Z,12.77
2023-05-16T06:53:23.557Z,12.81
2023-05-16T06:55:51.850Z,12.88
2023-05-16T06:58:19.956Z,12.85
2023-05-16T07:00:48.200Z,12.88
2023-05-16T07:03:16.558Z,12.83
2023-05-16T07:05:44.860Z,12.83
2023-05-16T07:08:13.168Z,12.83
2023-05-16T07:10:42.732Z,12.82
2023-05-16T07:13:11.065Z,12.81
2023-05-16T07:15:39.282Z,12.71
2023-05-16T07:18:07.556Z,12.56
2023-05-16T07:20:36.410Z,12.61
2023-05-16T07:23:04.530Z,12.54
2023-05-16T07:25:33.058Z,12.44
2023-05-16T07:28:02.602Z,12.53
2023-05-16T07:30:30.953Z,12.50
2023-05-16T07:32:59.528Z,12.46
2023-05-16T07:35:28.074Z,12.47
2023-05-16T07:37:56.497Z,12.46
2023-05-16T07:40:28.407Z,12.46
2023-05-16T07:42:56.671Z,12.44
2023-05-16T07:45:26.436Z,12.50
2023-05-16T07:47:54.832Z,12.57
2023-05-16T07:50:23.027Z,12.58
2023-05-16T07:52:51.182Z,12.71
2023-05-16T07:55:19.483Z,12.64
2023-05-16T07:57:47.642Z,12.63
2023-05-16T08:00:16.850Z,12.59
2023-05-16T08:02:47.110Z,12.53
2023-05-16T08:05:15.407Z,12.51
2023-05-16T08:07:43.600Z,12.54
2023-05-16T08:10:13.500Z,12.47
2023-05-16T08:12:41.895Z,12.46
2023-05-16T08:15:11.386Z,12.56
2023-05-16T08:17:39.593Z,12.49
2023-05-16T08:20:10.285Z,12.56
2023-05-16T08:22:38.449Z,12.62
2023-05-16T08:25:07.549Z,12.68
2023-05-16T08:27:35.725Z,12.69
2023-05-16T08:30:08.002Z,12.69
2023-05-16T08:32:37.458Z,12.69
2023-05-16T08:35:06.234Z,12.73
2023-05-16T08:37:36.471Z,12.63
2023-05-16T08:40:08.460Z,12.71
2023-05-16T08:42:37.567Z,12.72
2023-05-16T08:45:07.108Z,12.72
2023-05-16T08:47:36.945Z,12.74
2023-05-16T08:50:06.515Z,12.88
2023-05-16T08:52:40.637Z,12.99
2023-05-16T08:55:12.105Z,13.08
2023-05-16T08:57:41.960Z,13.02
2023-05-16T09:00:13.406Z,13.04
2023-05-16T09:02:42.045Z,13.11
2023-05-16T09:05:13.275Z,13.30
2023-05-16T09:07:43.392Z,13.22
2023-05-16T09:10:13.405Z,13.14
2023-05-16T09:12:42.479Z,13.13
2023-05-16T09:15:11.753Z,13.04
2023-05-16T09:17:44.487Z,13.07
2023-05-16T09:20:14.798Z,13.11
2023-05-16T09:22:52.844Z,13.18
2023-05-16T09:25:30.282Z,13.09
2023-05-16T09:28:04.145Z,13.11
2023-05-16T09:30:35.061Z,13.15
2023-05-16T09:33:03.680Z,13.22
2023-05-16T09:38:05.933Z,13.41
2023-05-16T09:40:34.062Z,13.41
2023-05-16T09:43:06.416Z,13.44
2023-05-16T09:45:35.506Z,13.39
2023-05-16T09:48:06.719Z,13.33
2023-05-16T09:50:35.485Z,13.36
2023-05-16T09:53:07.890Z,13.30
2023-05-16T09:55:36.422Z,13.22
2023-05-16T09:58:04.589Z,13.21
2023-05-16T10:00:34.697Z,13.23
2023-05-16T10:03:05.758Z,13.27
2023-05-16T10:05:36.602Z,13.30
2023-05-16T10:08:07.548Z,13.34
2023-05-16T10:10:43.546Z,13.31
2023-05-16T10:13:13.070Z,13.30
2023-05-16T10:15:41.464Z,13.29
2023-05-16T10:18:13.655Z,13.26
2023-05-16T10:20:43.653Z,13.23
2023-05-16T10:23:18.713Z,13.20
2023-05-16T10:25:48.147Z,13.16
2023-05-16T10:28:17.127Z,13.17
2023-05-16T10:30:46.763Z,13.21
2023-05-16T10:33:17.149Z,13.15
2023-05-16T10:35:46.662Z,13.22
2023-05-16T10:38:18.875Z,13.24
2023-05-16T10:40:49.732Z,13.31
2023-05-16T10:43:25.905Z,13.26
2023-05-16T10:45:57.969Z,13.33
2023-05-16T10:48:33.777Z,13.28
2023-05-16T10:51:04.240Z,13.32
2023-05-16T10:53:35.252Z,13.41
2023-05-16T10:56:11.414Z,13.49
2023-05-16T10:58:43.948Z,13.63
2023-05-16T11:01:30.283Z,13.76
2023-05-16T11:04:16.446Z,13.83
2023-05-16T11:06:52.676Z,13.84
2023-05-16T11:09:24.164Z,13.83
2023-05-16T11:11:57.713Z,13.78
2023-05-16T11:14:26.837Z,13.83
2023-05-16T11:17:02.907Z,13.94
2023-05-16T11:19:36.865Z,14.06
2023-05-16T11:22:15.826Z,14.15
2023-05-16T11:24:53.585Z,14.18
2023-05-16T11:27:24.775Z,14.25
2023-05-16T11:29:53.881Z,14.24
2023-05-16T11:32:23.615Z,14.24
2023-05-16T11:34:53.396Z,14.10
2023-05-16T11:37:23.034Z,14.16
2023-05-16T11:39:52.699Z,14.09
2023-05-16T11:42:20.957Z,14.20
2023-05-16T11:44:49.156Z,14.20
2023-05-16T11:47:17.356Z,14.24
2023-05-16T11:49:48.154Z,14.24
2023-05-16T11:52:18.333Z,14.36
2023-05-16T11:54:46.788Z,14.38
2023-05-16T11:57:16.606Z,14.46
2023-05-16T11:59:45.981Z,14.38
2023-05-16T12:05:55.580Z,14.67
2023-05-16T12:08:24.856Z,14.81
2023-05-16T12:10:54.379Z,14.80
2023-05-16T12:13:25.866Z,14.80
2023-05-16T12:15:54.927Z,14.82
2023-05-16T12:18:25.122Z,14.75
2023-05-16T12:20:53.803Z,14.75
2023-05-16T12:23:21.968Z,14.89
2023-05-16T12:25:50.183Z,14.90
2023-05-16T12:28:18.461Z,14.92
2023-05-16T12:30:49.070Z,14.91
2023-05-16T12:33:18.008Z,14.81
2023-05-16T12:35:47.505Z,14.80
2023-05-16T12:38:17.846Z,14.95
2023-05-16T12:40:46.514Z,15.04
2023-05-16T12:43:15.744Z,15.10
2023-05-16T12:45:44.570Z,15.09
2023-05-16T12:48:18.424Z,15.08
2023-05-16T12:50:50.539Z,15.08
2023-05-16T12:53:20.285Z,15.00
2023-05-16T12:55:48.614Z,14.89
2023-05-16T12:58:17.295Z,15.02
2023-05-16T13:00:47.837Z,15.07
2023-05-16T13:03:17.897Z,15.14
2023-05-16T13:05:46.232Z,15.16
2023-05-16T13:11:00.012Z,15.14
2023-05-16T13:13:35.965Z,15.15
2023-05-16T13:16:05.568Z,15.26
2023-05-16T13:18:36.659Z,15.19
2023-05-16T13:21:05.219Z,15.15
2023-05-16T13:23:33.803Z,15.15
2023-05-16T13:26:02.118Z,15.16
2023-05-16T13:28:32.230Z,15.12
2023-05-16T13:31:00.881Z,15.20
2023-05-16T13:33:29.147Z,15.17
2023-05-16T13:35:58.876Z,15.21
2023-05-16T13:38:27.210Z,15.30
2023-05-16T13:40:55.279Z,15.32
2023-05-16T13:43:23.389Z,15.44
2023-05-16T13:45:51.708Z,15.66
2023-05-16T13:48:20.107Z,15.65
2023-05-16T13:50:48.497Z,15.75
2023-05-16T13:53:18.528Z,15.79
2023-05-16T13:55:46.741Z,15.94
2023-05-16T13:58:15.131Z,16.04
2023-05-16T14:00:45.695Z,16.06
2023-05-16T14:03:14.839Z,16.18
2023-05-16T14:05:43.172Z,16.26
2023-05-16T14:08:11.369Z,16.36
2023-05-16T14:10:41.076Z,16.38
2023-05-16T14:13:09.366Z,16.45
2023-05-16T14:15:37.560Z,16.53
2023-05-16T14:18:06.437Z,16.50
2023-05-16T14:20:36.607Z,16.48
2023-05-16T14:23:05.056Z,16.52
2023-05-16T14:25:33.577Z,16.40
2023-05-16T14:28:05.973Z,16.41
2023-05-16T14:30:34.705Z,16.28
2023-05-16T14:33:03.875Z,16.25
2023-05-16T14:35:32.276Z,16.15
2023-05-16T14:38:03.618Z,16.09
2023-05-16T14:40:31.784Z,16.09
2023-05-16T14:42:59.877Z,15.99
2023-05-16T14:45:29.707Z,15.94
2023-05-16T14:48:02.424Z,15.91
2023-05-16T14:50:30.804Z,15.77
2023-05-16T14:52:58.945Z,15.73
2023-05-16T14:55:27.592Z,15.65
2023-05-16T14:57:59.602Z,15.59
2023-05-16T15:00:30.955Z,15.48
2023-05-16T15:03:00.943Z,15.48
2023-05-16T15:05:29.522Z,15.43
2023-05-16T15:07:57.953Z,15.44
2023-05-16T15:10:26.484Z,15.39
2023-05-16T15:12:55.130Z,15.34
2023-05-16T15:15:23.280Z,15.23
2023-05-16T15:17:54.000Z,15.20
2023-05-16T15:20:23.589Z,15.17
2023-05-16T15:22:51.780Z,15.16
2023-05-16T15:25:20.149Z,15.16
2023-05-16T15:27:48.522Z,15.13
2023-05-16T15:30:17.158Z,15.12
2023-05-16T15:32:45.648Z,15.11
2023-05-16T15:35:15.221Z,15.01
2023-05-16T15:37:43.903Z,14.95
2023-05-16T15:40:13.534Z,14.95
2023-05-16T15:42:44.314Z,14.92
2023-05-16T15:45:13.269Z,14.85
2023-05-16T15:47:43.101Z,14.79
2023-05-16T15:50:12.682Z,14.72
2023-05-16T15:52:42.559Z,14.71
2023-05-16T15:55:12.142Z,14.66
2023-05-16T15:57:41.082Z,14.62
2023-05-16T16:00:10.482Z,14.63
2023-05-16T16:02:38.755Z,14.60
2023-05-16T16:05:07.712Z,14.64
2023-05-16T16:07:36.581Z,14.62
2023-05-16T16:10:06.973Z,14.60
2023-05-16T16:12:35.297Z,14.61
2023-05-16T16:15:04.874Z,14.61
2023-05-16T16:17:33.286Z,14.61
2023-05-16T16:20:01.574Z,14.66
2023-05-16T16:22:29.843Z,14.69
2023-05-16T16:24:58.089Z,14.68
2023-05-16T16:27:28.099Z,14.72
2023-05-16T16:29:56.531Z,14.72
2023-05-16T16:32:24.813Z,14.72
2023-05-16T16:34:53.633Z,14.65
2023-05-16T16:37:22.031Z,14.69
2023-05-16T16:39:50.251Z,14.66
2023-05-16T16:42:18.568Z,14.65
2023-05-16T16:44:48.146Z,14.63
2023-05-16T16:47:17.006Z,14.62
2023-05-16T16:49:45.695Z,14.62
2023-05-16T16:52:14.009Z,14.64
2023-05-16T16:54:42.290Z,14.65
2023-05-16T16:57:10.494Z,14.64
2023-05-16T16:59:38.688Z,14.68
2023-05-16T17:02:08.525Z,14.63
2023-05-16T17:04:36.806Z,14.59
2023-05-16T17:07:05.053Z,14.59
2023-05-16T17:09:33.519Z,14.61
2023-05-16T17:12:07.962Z,14.57
2023-05-16T17:14:36.677Z,14.57
2023-05-16T17:17:05.009Z,14.56
2023-05-16T17:19:35.319Z,14.54
2023-05-16T17:22:03.546Z,14.51
2023-05-16T17:24:31.960Z,14.52
2023-05-16T17:27:00.880Z,14.52
2023-05-16T17:29:29.354Z,14.55
2023-05-16T17:31:57.804Z,14.51
2023-05-16T17:34:26.908Z,14.48
2023-05-16T17:36:57.393Z,14.47
2023-05-16T17:39:25.975Z,14.47
2023-05-16T17:41:55.820Z,14.43
2023-05-16T17:44:24.029Z,14.49
2023-05-16T17:46:54.558Z,14.48
2023-05-16T17:49:23.098Z,14.46
2023-05-16T17:51:52.840Z,14.51
2023-05-16T17:54:24.216Z,14.50
2023-05-16T17:56:53.866Z,14.51
2023-05-16T17:59:22.324Z,14.49
2023-05-16T18:01:50.809Z,14.46
2023-05-16T18:04:21.513Z,14.42
2023-05-16T18:06:53.652Z,14.42
2023-05-16T18:09:24.432Z,14.40
2023-05-16T18:11:52.861Z,14.40
2023-05-16T18:14:21.660Z,14.41
2023-05-16T18:16:50.305Z,14.38
2023-05-16T18:19:18.816Z,14.35
2023-05-16T18:21:49.999Z,14.35
2023-05-16T18:24:21.049Z,14.35
2023-05-16T18:26:51.704Z,14.35
2023-05-16T18:29:19.955Z,14.32
2023-05-16T18:31:48.225Z,14.36
2023-05-16T18:34:17.211Z,14.36
2023-05-16T18:36:45.890Z,14.36
2023-05-16T18:39:14.061Z,14.35
2023-05-16T18:41:46.745Z,14.32
2023-05-16T18:44:17.682Z,14.28
2023-05-16T18:46:48.540Z,14.26
2023-05-16T18:49:17.085Z,14.28
2023-05-16T18:51:45.684Z,14.27
2023-05-16T18:54:19.172Z,14.23
2023-05-16T18:56:47.634Z,14.16
2023-05-16T18:59:19.466Z,14.08
2023-05-16T19:01:48.465Z,14.07
2023-05-16T19:04:17.045Z,14.03
2023-05-16T19:06:47.478Z,14.03
2023-05-16T19:09:17.217Z,14.03
2023-05-16T19:11:46.831Z,14.02
2023-05-16T19:14:18.239Z,14.08
2023-05-16T19:16:47.738Z,14.06
2023-05-16T19:19:16.564Z,14.04
2023-05-16T19:21:45.779Z,14.07
2023-05-16T19:24:15.256Z,14.06
2023-05-16T19:26:46.569Z,14.02
2023-05-16T19:29:17.141Z,14.01
2023-05-16T19:31:45.898Z,14.06
2023-05-16T19:34:14.971Z,14.05
2023-05-16T19:36:43.591Z,14.09
2023-05-16T19:39:11.859Z,14.06
2023-05-16T19:41:40.563Z,14.02
2023-05-16T19:44:08.771Z,14.05
2023-05-16T19:46:39.394Z,14.00
2023-05-16T19:49:07.892Z,13.99
2023-05-16T19:51:41.876Z,13.98
2023-05-16T19:54:10.727Z,13.97
2023-05-16T19:56:38.847Z,13.93
2023-05-16T19:59:06.997Z,13.93
2023-05-16T20:01:35.107Z,13.92
2023-05-16T20:04:05.683Z,13.86
2023-05-16T20:06:34.092Z,13.83
2023-05-16T20:09:02.392Z,13.85
2023-05-16T20:11:30.713Z,13.85
2023-05-16T20:14:00.468Z,13.87
2023-05-16T20:16:31.312Z,13.88
2023-05-16T20:18:59.706Z,13.86
2023-05-16T20:21:29.730Z,13.95
2023-05-16T20:24:01.643Z,13.95
2023-05-16T20:26:29.799Z,14.02
2023-05-16T20:28:58.001Z,13.99
2023-05-16T20:31:26.708Z,13.99
2023-05-16T20:33:55.118Z,13.99
2023-05-16T20:36:25.098Z,14.00
2023-05-16T20:38:55.007Z,14.01
2023-05-16T20:41:23.288Z,14.09
2023-05-16T20:43:53.673Z,14.11
2023-05-16T20:46:25.006Z,14.10
2023-05-16T20:48:53.221Z,14.11
2023-05-16T20:51:23.721Z,14.11
2023-05-16T20:54:00.309Z,14.13
2023-05-16T20:56:29.982Z,14.14
2023-05-16T20:58:58.049Z,14.08
2023-05-16T21:01:26.278Z,14.14
2023-05-16T21:03:54.501Z,14.14
2023-05-16T21:06:22.783Z,14.16
2023-05-16T21:08:53.223Z,14.15
2023-05-16T21:11:21.944Z,14.19
2023-05-16T21:13:53.443Z,14.26
2023-05-16T21:16:22.189Z,14.30
2023-05-16T21:18:50.482Z,14.37
2023-05-16T21:21:18.707Z,14.35
2023-05-16T21:23:49.945Z,14.37
2023-05-16T21:26:18.063Z,14.39
2023-05-16T21:28:55.076Z,14.38
2023-05-16T21:31:25.431Z,14.43
2023-05-16T21:33:53.766Z,14.43
2023-05-16T21:36:22.542Z,14.40
2023-05-16T21:38:50.666Z,14.37
2023-05-16T21:41:21.749Z,14.41
2023-05-16T21:43:50.434Z,14.45
2023-05-16T21:46:18.576Z,14.44
2023-05-16T21:48:48.273Z,14.41
2023-05-16T21:51:16.687Z,14.44
2023-05-16T21:53:46.735Z,14.42
2023-05-16T21:56:15.359Z,14.43
2023-05-16T21:58:43.537Z,14.36
2023-05-16T22:01:16.749Z,14.45
2023-05-16T22:03:45.005Z,14.37
2023-05-16T22:06:15.023Z,14.42
2023-05-16T22:08:43.207Z,14.38
2023-05-16T22:11:11.685Z,14.34
2023-05-16T22:13:39.876Z,14.32
2023-05-16T22:16:08.243Z,14.27
2023-05-16T22:18:36.673Z,14.30
2023-05-16T22:21:05.082Z,14.34
2023-05-16T22:23:34.714Z,14.33
2023-05-16T22:26:02.756Z,14.34
2023-05-16T22:28:30.815Z,14.38
2023-05-16T22:30:58.915Z,14.40
2023-05-16T22:33:27.340Z,14.37
2023-05-16T22:35:55.602Z,14.41
2023-05-16T22:38:23.735Z,14.41
2023-05-16T22:40:53.745Z,14.43
2023-05-16T22:43:21.968Z,14.45
2023-05-16T22:45:51.565Z,14.46
2023-05-16T22:48:19.830Z,14.47
2023-05-16T22:50:48.048Z,14.50
2023-05-16T22:53:16.238Z,14.50
2023-05-16T22:55:47.094Z,14.51
2023-05-16T22:58:16.630Z,14.52
2023-05-16T23:00:44.886Z,14.47
2023-05-16T23:03:13.117Z,14.48
2023-05-16T23:05:41.348Z,14.45
2023-05-16T23:08:09.491Z,14.43
2023-05-16T23:10:37.829Z,14.49
2023-05-16T23:13:05.970Z,14.48
2023-05-16T23:15:35.491Z,14.49
2023-05-16T23:18:03.665Z,14.44
2023-05-16T23:20:31.857Z,14.42
2023-05-16T23:23:00.123Z,14.42
2023-05-16T23:25:28.627Z,14.40
2023-05-16T23:27:58.048Z,14.38
2023-05-16T23:30:26.299Z,14.38
2023-05-16T23:32:56.625Z,14.37
2023-05-16T23:35:24.887Z,14.34
2023-05-16T23:37:53.052Z,14.34
2023-05-16T23:40:21.232Z,14.31
2023-05-16T23:42:49.239Z,14.35
2023-05-16T23:45:17.408Z,14.29
2023-05-16T23:47:45.953Z,14.30
2023-05-16T23:50:17.442Z,14.27
2023-05-16T23:52:45.773Z,14.24
2023-05-16T23:55:13.913Z,14.21
2023-05-16T23:57:42.293Z,14.20
